sensor_id;sensor_type;location;lat;lon;timestamp;P1;durP1;ratioP1;P2;durP2;ratioP2
78344;SDS011;67620;51.134;6.548;2023-08-17T00:00:04;6.80;;;4.22;;
78344;SDS011;67620;51.134;6.548;2023-08-17T00:02:33;7.45;;;4.80;;
78344;SDS011;67620;51.134;6.548;2023-08-17T00:04:59;6.18;;;4.78;;
78344;SDS011;67620;51.134;6.548;2023-08-17T00:07:25;5.93;;;4.70;;
78344;SDS011;67620;51.134;6.548;2023-08-17T00:09:50;6.40;;;4.85;;
78344;SDS011;67620;51.134;6.548;2023-08-17T00:12:16;9.57;;;5.30;;
78344;SDS011;67620;51.134;6.548;2023-08-17T00:14:41;6.97;;;5.40;;
78344;SDS011;67620;51.134;6.548;2023-08-17T00:17:06;6.70;;;5.70;;
78344;SDS011;67620;51.134;6.548;2023-08-17T00:19:32;6.03;;;5.45;;
78344;SDS011;67620;51.134;6.548;2023-08-17T00:21:57;9.32;;;5.82;;
78344;SDS011;67620;51.134;6.548;2023-08-17T00:24:23;7.28;;;6.03;;
78344;SDS011;67620;51.134;6.548;2023-08-17T00:26:49;7.95;;;6.20;;
78344;SDS011;67620;51.134;6.548;2023-08-17T00:29:14;8.05;;;5.65;;
78344;SDS011;67620;51.134;6.548;2023-08-17T00:34:06;7.90;;;5.00;;
78344;SDS011;67620;51.134;6.548;2023-08-17T00:36:31;6.43;;;5.75;;
78344;SDS011;67620;51.134;6.548;2023-08-17T00:38:57;9.95;;;5.65;;
78344;SDS011;67620;51.134;6.548;2023-08-17T00:41:22;9.15;;;6.35;;
78344;SDS011;67620;51.134;6.548;2023-08-17T00:43:48;7.63;;;5.43;;
78344;SDS011;67620;51.134;6.548;2023-08-17T00:46:13;7.10;;;5.45;;
78344;SDS011;67620;51.134;6.548;2023-08-17T00:48:39;6.47;;;5.80;;
78344;SDS011;67620;51.134;6.548;2023-08-17T00:51:06;6.93;;;5.68;;
78344;SDS011;67620;51.134;6.548;2023-08-17T00:53:32;7.18;;;5.55;;
78344;SDS011;67620;51.134;6.548;2023-08-17T00:55:58;6.53;;;5.60;;
78344;SDS011;67620;51.134;6.548;2023-08-17T00:58:25;8.30;;;5.90;;
78344;SDS011;67620;51.134;6.548;2023-08-17T01:00:52;8.70;;;5.60;;
78344;SDS011;67620;51.134;6.548;2023-08-17T01:03:17;7.25;;;5.95;;
78344;SDS011;67620;51.134;6.548;2023-08-17T01:05:45;5.60;;;5.07;;
78344;SDS011;67620;51.134;6.548;2023-08-17T01:08:11;7.22;;;4.90;;
78344;SDS011;67620;51.134;6.548;2023-08-17T01:13:24;5.80;;;5.05;;
78344;SDS011;67620;51.134;6.548;2023-08-17T01:15:56;6.10;;;5.50;;
78344;SDS011;67620;51.134;6.548;2023-08-17T01:18:31;7.03;;;5.40;;
78344;SDS011;67620;51.134;6.548;2023-08-17T01:20:59;7.00;;;5.40;;
78344;SDS011;67620;51.134;6.548;2023-08-17T01:23:26;7.80;;;5.30;;
78344;SDS011;67620;51.134;6.548;2023-08-17T01:25:52;5.95;;;5.00;;
78344;SDS011;67620;51.134;6.548;2023-08-17T01:28:18;6.75;;;5.50;;
78344;SDS011;67620;51.134;6.548;2023-08-17T01:30:47;8.93;;;5.22;;
78344;SDS011;67620;51.134;6.548;2023-08-17T01:33:24;5.78;;;5.10;;
78344;SDS011;67620;51.134;6.548;2023-08-17T01:36:01;5.80;;;4.88;;
78344;SDS011;67620;51.134;6.548;2023-08-17T01:38:31;6.22;;;4.90;;
78344;SDS011;67620;51.134;6.548;2023-08-17T01:40:59;5.90;;;5.10;;
78344;SDS011;67620;51.134;6.548;2023-08-17T01:43:27;5.97;;;4.22;;
78344;SDS011;67620;51.134;6.548;2023-08-17T01:45:53;6.07;;;4.85;;
78344;SDS011;67620;51.134;6.548;2023-08-17T01:48:19;5.88;;;4.93;;
78344;SDS011;67620;51.134;6.548;2023-08-17T01:50:45;5.40;;;4.18;;
78344;SDS011;67620;51.134;6.548;2023-08-17T01:53:10;8.07;;;4.70;;
78344;SDS011;67620;51.134;6.548;2023-08-17T01:55:36;5.95;;;4.53;;
78344;SDS011;67620;51.134;6.548;2023-08-17T01:58:02;6.40;;;4.57;;
78344;SDS011;67620;51.134;6.548;2023-08-17T02:00:28;6.57;;;4.78;;
78344;SDS011;67620;51.134;6.548;2023-08-17T02:02:53;7.80;;;5.35;;
78344;SDS011;67620;51.134;6.548;2023-08-17T02:05:19;6.82;;;5.25;;
78344;SDS011;67620;51.134;6.548;2023-08-17T02:07:44;8.68;;;5.05;;
78344;SDS011;67620;51.134;6.548;2023-08-17T02:10:10;6.57;;;5.18;;
78344;SDS011;67620;51.134;6.548;2023-08-17T02:12:35;6.57;;;4.47;;
78344;SDS011;67620;51.134;6.548;2023-08-17T02:15:01;6.38;;;4.72;;
78344;SDS011;67620;51.134;6.548;2023-08-17T02:17:26;6.22;;;5.00;;
78344;SDS011;67620;51.134;6.548;2023-08-17T02:19:52;6.82;;;5.47;;
78344;SDS011;67620;51.134;6.548;2023-08-17T02:22:17;9.90;;;5.78;;
78344;SDS011;67620;51.134;6.548;2023-08-17T02:24:43;7.40;;;4.95;;
78344;SDS011;67620;51.134;6.548;2023-08-17T02:27:09;6.00;;;4.97;;
78344;SDS011;67620;51.134;6.548;2023-08-17T02:29:34;7.18;;;6.18;;
78344;SDS011;67620;51.134;6.548;2023-08-17T02:32:00;6.00;;;5.40;;
78344;SDS011;67620;51.134;6.548;2023-08-17T02:34:26;7.70;;;5.95;;
78344;SDS011;67620;51.134;6.548;2023-08-17T02:36:51;6.85;;;6.05;;
78344;SDS011;67620;51.134;6.548;2023-08-17T02:39:17;6.60;;;5.78;;
78344;SDS011;67620;51.134;6.548;2023-08-17T02:41:42;7.65;;;5.63;;
78344;SDS011;67620;51.134;6.548;2023-08-17T02:44:09;6.70;;;5.47;;
78344;SDS011;67620;51.134;6.548;2023-08-17T02:46:35;6.53;;;5.22;;
78344;SDS011;67620;51.134;6.548;2023-08-17T02:49:01;7.85;;;5.93;;
78344;SDS011;67620;51.134;6.548;2023-08-17T02:51:27;9.07;;;5.72;;
78344;SDS011;67620;51.134;6.548;2023-08-17T02:53:53;7.47;;;5.72;;
78344;SDS011;67620;51.134;6.548;2023-08-17T02:56:18;6.47;;;5.05;;
78344;SDS011;67620;51.134;6.548;2023-08-17T02:58:44;8.75;;;5.97;;
78344;SDS011;67620;51.134;6.548;2023-08-17T03:03:35;6.03;;;5.20;;
78344;SDS011;67620;51.134;6.548;2023-08-17T03:06:01;7.03;;;5.10;;
78344;SDS011;67620;51.134;6.548;2023-08-17T03:08:27;7.03;;;5.70;;
78344;SDS011;67620;51.134;6.548;2023-08-17T03:10:53;7.95;;;5.65;;
78344;SDS011;67620;51.134;6.548;2023-08-17T03:13:18;7.13;;;5.72;;
78344;SDS011;67620;51.134;6.548;2023-08-17T03:15:44;7.85;;;5.70;;
78344;SDS011;67620;51.134;6.548;2023-08-17T03:18:10;7.70;;;5.18;;
78344;SDS011;67620;51.134;6.548;2023-08-17T03:20:35;7.82;;;5.20;;
78344;SDS011;67620;51.134;6.548;2023-08-17T03:23:01;6.95;;;4.57;;
78344;SDS011;67620;51.134;6.548;2023-08-17T03:25:26;6.35;;;4.95;;
78344;SDS011;67620;51.134;6.548;2023-08-17T03:27:52;6.57;;;5.35;;
78344;SDS011;67620;51.134;6.548;2023-08-17T03:30:18;9.30;;;5.18;;
78344;SDS011;67620;51.134;6.548;2023-08-17T03:32:43;6.95;;;4.30;;
78344;SDS011;67620;51.134;6.548;2023-08-17T03:35:09;10.25;;;5.30;;
78344;SDS011;67620;51.134;6.548;2023-08-17T03:37:34;7.38;;;5.20;;
78344;SDS011;67620;51.134;6.548;2023-08-17T03:40:00;9.48;;;5.32;;
78344;SDS011;67620;51.134;6.548;2023-08-17T03:42:26;7.68;;;4.90;;
78344;SDS011;67620;51.134;6.548;2023-08-17T03:44:52;6.72;;;5.18;;
78344;SDS011;67620;51.134;6.548;2023-08-17T03:47:17;10.55;;;6.10;;
78344;SDS011;67620;51.134;6.548;2023-08-17T03:49:43;11.80;;;6.13;;
78344;SDS011;67620;51.134;6.548;2023-08-17T03:52:09;9.45;;;6.47;;
78344;SDS011;67620;51.134;6.548;2023-08-17T03:54:35;9.27;;;5.97;;
78344;SDS011;67620;51.134;6.548;2023-08-17T03:57:01;6.50;;;5.47;;
78344;SDS011;67620;51.134;6.548;2023-08-17T03:59:27;15.32;;;6.15;;
78344;SDS011;67620;51.134;6.548;2023-08-17T04:01:52;9.32;;;5.85;;
78344;SDS011;67620;51.134;6.548;2023-08-17T04:04:18;9.05;;;6.65;;
78344;SDS011;67620;51.134;6.548;2023-08-17T04:06:43;9.75;;;7.57;;
78344;SDS011;67620;51.134;6.548;2023-08-17T04:09:09;11.40;;;7.30;;
78344;SDS011;67620;51.134;6.548;2023-08-17T04:11:35;11.32;;;7.72;;
78344;SDS011;67620;51.134;6.548;2023-08-17T04:14:03;12.77;;;8.40;;
78344;SDS011;67620;51.134;6.548;2023-08-17T04:16:29;10.68;;;7.63;;
78344;SDS011;67620;51.134;6.548;2023-08-17T04:18:55;13.00;;;8.65;;
78344;SDS011;67620;51.134;6.548;2023-08-17T04:21:21;11.30;;;7.88;;
78344;SDS011;67620;51.134;6.548;2023-08-17T04:23:46;14.02;;;8.55;;
78344;SDS011;67620;51.134;6.548;2023-08-17T04:28:38;14.70;;;9.30;;
78344;SDS011;67620;51.134;6.548;2023-08-17T04:31:03;10.80;;;9.02;;
78344;SDS011;67620;51.134;6.548;2023-08-17T04:33:29;15.85;;;9.35;;
78344;SDS011;67620;51.134;6.548;2023-08-17T04:35:54;12.45;;;9.00;;
78344;SDS011;67620;51.134;6.548;2023-08-17T04:38:20;14.25;;;9.10;;
78344;SDS011;67620;51.134;6.548;2023-08-17T04:40:46;23.75;;;17.10;;
78344;SDS011;67620;51.134;6.548;2023-08-17T04:43:11;17.90;;;12.98;;
78344;SDS011;67620;51.134;6.548;2023-08-17T04:45:37;13.52;;;10.45;;
78344;SDS011;67620;51.134;6.548;2023-08-17T04:48:03;13.63;;;9.00;;
78344;SDS011;67620;51.134;6.548;2023-08-17T04:50:29;12.60;;;9.25;;
78344;SDS011;67620;51.134;6.548;2023-08-17T04:52:54;11.07;;;9.25;;
78344;SDS011;67620;51.134;6.548;2023-08-17T04:55:20;21.77;;;14.07;;
78344;SDS011;67620;51.134;6.548;2023-08-17T04:57:45;17.48;;;12.05;;
78344;SDS011;67620;51.134;6.548;2023-08-17T05:00:11;21.65;;;16.27;;
78344;SDS011;67620;51.134;6.548;2023-08-17T05:02:38;12.25;;;9.70;;
78344;SDS011;67620;51.134;6.548;2023-08-17T05:05:04;15.75;;;9.57;;
78344;SDS011;67620;51.134;6.548;2023-08-17T05:07:31;15.20;;;9.43;;
78344;SDS011;67620;51.134;6.548;2023-08-17T05:09:57;14.63;;;8.75;;
78344;SDS011;67620;51.134;6.548;2023-08-17T05:12:23;12.93;;;9.77;;
78344;SDS011;67620;51.134;6.548;2023-08-17T05:14:48;12.25;;;9.38;;
78344;SDS011;67620;51.134;6.548;2023-08-17T05:17:14;9.55;;;8.38;;
78344;SDS011;67620;51.134;6.548;2023-08-17T05:19:39;13.32;;;9.15;;
78344;SDS011;67620;51.134;6.548;2023-08-17T05:22:09;9.77;;;8.50;;
78344;SDS011;67620;51.134;6.548;2023-08-17T05:24:36;13.57;;;9.02;;
78344;SDS011;67620;51.134;6.548;2023-08-17T05:27:01;10.77;;;8.23;;
78344;SDS011;67620;51.134;6.548;2023-08-17T05:29:27;11.45;;;8.60;;
78344;SDS011;67620;51.134;6.548;2023-08-17T05:31:53;11.75;;;8.35;;
78344;SDS011;67620;51.134;6.548;2023-08-17T05:34:18;10.20;;;8.93;;
78344;SDS011;67620;51.134;6.548;2023-08-17T05:36:44;9.52;;;8.00;;
78344;SDS011;67620;51.134;6.548;2023-08-17T05:39:09;13.60;;;8.15;;
78344;SDS011;67620;51.134;6.548;2023-08-17T05:44:00;12.82;;;8.27;;
78344;SDS011;67620;51.134;6.548;2023-08-17T05:46:27;9.52;;;7.55;;
78344;SDS011;67620;51.134;6.548;2023-08-17T05:48:52;12.85;;;7.63;;
78344;SDS011;67620;51.134;6.548;2023-08-17T05:51:18;10.52;;;8.85;;
78344;SDS011;67620;51.134;6.548;2023-08-17T05:53:43;15.93;;;8.50;;
78344;SDS011;67620;51.134;6.548;2023-08-17T05:56:09;12.60;;;8.70;;
78344;SDS011;67620;51.134;6.548;2023-08-17T05:58:34;16.77;;;9.23;;
78344;SDS011;67620;51.134;6.548;2023-08-17T06:01:03;12.80;;;8.38;;
78344;SDS011;67620;51.134;6.548;2023-08-17T06:03:35;14.73;;;8.77;;
78344;SDS011;67620;51.134;6.548;2023-08-17T06:06:02;12.50;;;8.35;;
78344;SDS011;67620;51.134;6.548;2023-08-17T06:08:28;17.98;;;9.65;;
78344;SDS011;67620;51.134;6.548;2023-08-17T06:10:53;11.18;;;9.35;;
78344;SDS011;67620;51.134;6.548;2023-08-17T06:13:19;15.15;;;10.23;;
78344;SDS011;67620;51.134;6.548;2023-08-17T06:18:10;14.43;;;9.80;;
78344;SDS011;67620;51.134;6.548;2023-08-17T06:23:01;14.40;;;10.45;;
78344;SDS011;67620;51.134;6.548;2023-08-17T06:25:26;15.80;;;11.35;;
78344;SDS011;67620;51.134;6.548;2023-08-17T06:30:17;15.70;;;11.93;;
78344;SDS011;67620;51.134;6.548;2023-08-17T06:32:43;14.45;;;11.45;;
78344;SDS011;67620;51.134;6.548;2023-08-17T06:37:35;15.55;;;12.27;;
78344;SDS011;67620;51.134;6.548;2023-08-17T06:40:01;15.60;;;12.63;;
78344;SDS011;67620;51.134;6.548;2023-08-17T06:42:27;14.98;;;12.23;;
78344;SDS011;67620;51.134;6.548;2023-08-17T06:44:53;17.92;;;12.43;;
78344;SDS011;67620;51.134;6.548;2023-08-17T06:47:18;17.55;;;14.05;;
78344;SDS011;67620;51.134;6.548;2023-08-17T06:49:44;15.07;;;12.80;;
78344;SDS011;67620;51.134;6.548;2023-08-17T06:52:09;14.48;;;12.43;;
78344;SDS011;67620;51.134;6.548;2023-08-17T06:54:35;15.73;;;12.18;;
78344;SDS011;67620;51.134;6.548;2023-08-17T06:57:00;17.13;;;13.52;;
78344;SDS011;67620;51.134;6.548;2023-08-17T06:59:26;16.27;;;11.82;;
78344;SDS011;67620;51.134;6.548;2023-08-17T07:01:52;18.25;;;12.43;;
78344;SDS011;67620;51.134;6.548;2023-08-17T07:04:17;17.88;;;13.75;;
78344;SDS011;67620;51.134;6.548;2023-08-17T07:06:43;18.90;;;13.25;;
78344;SDS011;67620;51.134;6.548;2023-08-17T07:09:08;18.50;;;12.93;;
78344;SDS011;67620;51.134;6.548;2023-08-17T07:11:37;18.38;;;12.68;;
78344;SDS011;67620;51.134;6.548;2023-08-17T07:14:03;17.10;;;12.82;;
78344;SDS011;67620;51.134;6.548;2023-08-17T07:16:30;17.88;;;14.48;;
78344;SDS011;67620;51.134;6.548;2023-08-17T07:18:56;18.98;;;13.10;;
78344;SDS011;67620;51.134;6.548;2023-08-17T07:21:21;18.13;;;14.13;;
78344;SDS011;67620;51.134;6.548;2023-08-17T07:23:47;21.67;;;14.27;;
78344;SDS011;67620;51.134;6.548;2023-08-17T07:26:13;19.20;;;13.75;;
78344;SDS011;67620;51.134;6.548;2023-08-17T07:28:38;17.77;;;13.68;;
78344;SDS011;67620;51.134;6.548;2023-08-17T07:31:04;19.40;;;13.77;;
78344;SDS011;67620;51.134;6.548;2023-08-17T07:33:30;19.42;;;13.77;;
78344;SDS011;67620;51.134;6.548;2023-08-17T07:35:56;21.75;;;13.30;;
78344;SDS011;67620;51.134;6.548;2023-08-17T07:38:23;19.50;;;13.35;;
78344;SDS011;67620;51.134;6.548;2023-08-17T07:40:48;20.90;;;13.23;;
78344;SDS011;67620;51.134;6.548;2023-08-17T07:43:14;19.27;;;13.38;;
78344;SDS011;67620;51.134;6.548;2023-08-17T07:45:40;21.20;;;14.00;;
78344;SDS011;67620;51.134;6.548;2023-08-17T07:48:05;19.88;;;13.82;;
78344;SDS011;67620;51.134;6.548;2023-08-17T07:50:31;18.58;;;14.40;;
78344;SDS011;67620;51.134;6.548;2023-08-17T07:52:57;20.27;;;13.85;;
78344;SDS011;67620;51.134;6.548;2023-08-17T07:55:22;21.20;;;14.13;;
78344;SDS011;67620;51.134;6.548;2023-08-17T07:57:48;18.05;;;12.85;;
78344;SDS011;67620;51.134;6.548;2023-08-17T08:00:13;19.50;;;14.20;;
78344;SDS011;67620;51.134;6.548;2023-08-17T08:02:39;18.77;;;14.32;;
78344;SDS011;67620;51.134;6.548;2023-08-17T08:05:05;18.77;;;13.85;;
78344;SDS011;67620;51.134;6.548;2023-08-17T08:07:31;21.60;;;14.90;;
78344;SDS011;67620;51.134;6.548;2023-08-17T08:09:57;23.85;;;15.35;;
78344;SDS011;67620;51.134;6.548;2023-08-17T08:12:22;20.13;;;14.68;;
78344;SDS011;67620;51.134;6.548;2023-08-17T08:14:48;22.25;;;14.45;;
78344;SDS011;67620;51.134;6.548;2023-08-17T08:17:14;21.15;;;14.85;;
78344;SDS011;67620;51.134;6.548;2023-08-17T08:19:40;16.98;;;13.45;;
78344;SDS011;67620;51.134;6.548;2023-08-17T08:22:05;19.08;;;13.70;;
78344;SDS011;67620;51.134;6.548;2023-08-17T08:24:31;18.15;;;12.98;;
78344;SDS011;67620;51.134;6.548;2023-08-17T08:26:59;16.08;;;12.73;;
78344;SDS011;67620;51.134;6.548;2023-08-17T08:29:26;16.95;;;12.90;;
78344;SDS011;67620;51.134;6.548;2023-08-17T08:31:51;18.25;;;13.95;;
78344;SDS011;67620;51.134;6.548;2023-08-17T08:34:17;23.45;;;14.27;;
78344;SDS011;67620;51.134;6.548;2023-08-17T08:36:43;21.10;;;14.10;;
78344;SDS011;67620;51.134;6.548;2023-08-17T08:39:08;20.85;;;15.23;;
78344;SDS011;67620;51.134;6.548;2023-08-17T08:41:34;18.58;;;13.38;;
78344;SDS011;67620;51.134;6.548;2023-08-17T08:44:01;20.10;;;15.05;;
78344;SDS011;67620;51.134;6.548;2023-08-17T08:46:27;22.60;;;14.80;;
78344;SDS011;67620;51.134;6.548;2023-08-17T08:48:55;24.13;;;15.02;;
78344;SDS011;67620;51.134;6.548;2023-08-17T08:51:27;20.38;;;13.48;;
78344;SDS011;67620;51.134;6.548;2023-08-17T08:54:00;20.85;;;14.80;;
78344;SDS011;67620;51.134;6.548;2023-08-17T08:56:33;22.95;;;14.90;;
78344;SDS011;67620;51.134;6.548;2023-08-17T08:59:03;22.42;;;15.95;;
78344;SDS011;67620;51.134;6.548;2023-08-17T09:01:32;21.98;;;15.18;;
78344;SDS011;67620;51.134;6.548;2023-08-17T09:03:59;19.20;;;14.20;;
78344;SDS011;67620;51.134;6.548;2023-08-17T09:06:26;18.50;;;14.02;;
78344;SDS011;67620;51.134;6.548;2023-08-17T09:08:52;18.90;;;14.10;;
78344;SDS011;67620;51.134;6.548;2023-08-17T09:11:18;21.30;;;15.50;;
78344;SDS011;67620;51.134;6.548;2023-08-17T09:13:43;22.75;;;14.98;;
78344;SDS011;67620;51.134;6.548;2023-08-17T09:16:09;19.73;;;14.93;;
78344;SDS011;67620;51.134;6.548;2023-08-17T09:18:35;21.23;;;14.98;;
78344;SDS011;67620;51.134;6.548;2023-08-17T09:21:00;19.48;;;15.38;;
78344;SDS011;67620;51.134;6.548;2023-08-17T09:23:26;23.10;;;13.93;;
78344;SDS011;67620;51.134;6.548;2023-08-17T09:25:52;19.13;;;14.27;;
78344;SDS011;67620;51.134;6.548;2023-08-17T09:28:22;18.65;;;14.73;;
78344;SDS011;67620;51.134;6.548;2023-08-17T09:30:58;18.48;;;14.07;;
78344;SDS011;67620;51.134;6.548;2023-08-17T09:33:29;19.15;;;14.20;;
78344;SDS011;67620;51.134;6.548;2023-08-17T09:35:56;18.48;;;13.75;;
78344;SDS011;67620;51.134;6.548;2023-08-17T09:38:22;17.15;;;13.55;;
78344;SDS011;67620;51.134;6.548;2023-08-17T09:40:48;19.25;;;12.40;;
78344;SDS011;67620;51.134;6.548;2023-08-17T09:43:14;15.80;;;12.32;;
78344;SDS011;67620;51.134;6.548;2023-08-17T09:45:40;16.73;;;12.65;;
78344;SDS011;67620;51.134;6.548;2023-08-17T09:48:09;15.95;;;12.57;;
78344;SDS011;67620;51.134;6.548;2023-08-17T09:50:35;16.77;;;12.30;;
78344;SDS011;67620;51.134;6.548;2023-08-17T09:53:03;15.73;;;12.20;;
78344;SDS011;67620;51.134;6.548;2023-08-17T09:55:32;18.88;;;14.20;;
78344;SDS011;67620;51.134;6.548;2023-08-17T09:57:59;21.42;;;14.15;;
78344;SDS011;67620;51.134;6.548;2023-08-17T10:00:25;19.48;;;14.40;;
78344;SDS011;67620;51.134;6.548;2023-08-17T10:02:52;20.35;;;14.18;;
78344;SDS011;67620;51.134;6.548;2023-08-17T10:05:19;21.42;;;13.82;;
78344;SDS011;67620;51.134;6.548;2023-08-17T10:07:51;16.40;;;12.68;;
78344;SDS011;67620;51.134;6.548;2023-08-17T10:10:21;18.52;;;12.63;;
78344;SDS011;67620;51.134;6.548;2023-08-17T10:15:36;19.85;;;13.43;;
78344;SDS011;67620;51.134;6.548;2023-08-17T10:18:24;19.48;;;13.80;;
78344;SDS011;67620;51.134;6.548;2023-08-17T10:20:57;21.13;;;13.85;;
78344;SDS011;67620;51.134;6.548;2023-08-17T10:23:27;18.27;;;13.68;;
78344;SDS011;67620;51.134;6.548;2023-08-17T10:25:53;19.83;;;13.23;;
78344;SDS011;67620;51.134;6.548;2023-08-17T10:28:19;17.63;;;13.00;;
78344;SDS011;67620;51.134;6.548;2023-08-17T10:30:47;18.05;;;13.50;;
78344;SDS011;67620;51.134;6.548;2023-08-17T10:33:15;21.25;;;14.85;;
78344;SDS011;67620;51.134;6.548;2023-08-17T10:35:41;21.60;;;15.63;;
78344;SDS011;67620;51.134;6.548;2023-08-17T10:38:08;20.85;;;15.00;;
78344;SDS011;67620;51.134;6.548;2023-08-17T10:40:37;22.30;;;15.18;;
78344;SDS011;67620;51.134;6.548;2023-08-17T10:43:06;18.60;;;14.30;;
78344;SDS011;67620;51.134;6.548;2023-08-17T10:45:33;23.52;;;15.05;;
78344;SDS011;67620;51.134;6.548;2023-08-17T10:50:37;21.05;;;14.60;;
78344;SDS011;67620;51.134;6.548;2023-08-17T10:53:04;20.50;;;15.43;;
78344;SDS011;67620;51.134;6.548;2023-08-17T10:55:37;22.48;;;14.95;;
78344;SDS011;67620;51.134;6.548;2023-08-17T10:58:05;20.58;;;14.68;;
78344;SDS011;67620;51.134;6.548;2023-08-17T11:00:37;20.58;;;13.90;;
78344;SDS011;67620;51.134;6.548;2023-08-17T11:03:04;21.30;;;14.77;;
78344;SDS011;67620;51.134;6.548;2023-08-17T11:05:45;20.80;;;14.80;;
78344;SDS011;67620;51.134;6.548;2023-08-17T11:08:38;22.83;;;16.30;;
78344;SDS011;67620;51.134;6.548;2023-08-17T11:11:11;21.70;;;14.82;;
78344;SDS011;67620;51.134;6.548;2023-08-17T11:13:42;22.85;;;15.55;;
78344;SDS011;67620;51.134;6.548;2023-08-17T11:16:10;17.92;;;13.50;;
78344;SDS011;67620;51.134;6.548;2023-08-17T11:18:36;21.85;;;14.13;;
78344;SDS011;67620;51.134;6.548;2023-08-17T11:21:03;20.63;;;13.43;;
78344;SDS011;67620;51.134;6.548;2023-08-17T11:23:30;26.33;;;15.82;;
78344;SDS011;67620;51.134;6.548;2023-08-17T11:25:57;20.35;;;15.68;;
78344;SDS011;67620;51.134;6.548;2023-08-17T11:28:23;21.58;;;15.50;;
78344;SDS011;67620;51.134;6.548;2023-08-17T11:30:58;22.23;;;14.63;;
78344;SDS011;67620;51.134;6.548;2023-08-17T11:33:29;22.60;;;15.05;;
78344;SDS011;67620;51.134;6.548;2023-08-17T11:35:56;20.60;;;14.27;;
78344;SDS011;67620;51.134;6.548;2023-08-17T11:38:22;21.85;;;14.82;;
78344;SDS011;67620;51.134;6.548;2023-08-17T11:40:51;20.35;;;13.13;;
78344;SDS011;67620;51.134;6.548;2023-08-17T11:43:17;20.58;;;14.93;;
78344;SDS011;67620;51.134;6.548;2023-08-17T11:45:45;18.85;;;13.82;;
78344;SDS011;67620;51.134;6.548;2023-08-17T11:48:11;20.50;;;15.25;;
78344;SDS011;67620;51.134;6.548;2023-08-17T11:50:36;23.25;;;15.95;;
78344;SDS011;67620;51.134;6.548;2023-08-17T11:53:04;23.27;;;17.00;;
78344;SDS011;67620;51.134;6.548;2023-08-17T11:55:29;25.60;;;16.92;;
78344;SDS011;67620;51.134;6.548;2023-08-17T11:57:55;24.77;;;16.70;;
78344;SDS011;67620;51.134;6.548;2023-08-17T12:00:21;24.63;;;17.45;;
78344;SDS011;67620;51.134;6.548;2023-08-17T12:02:50;20.70;;;15.77;;
78344;SDS011;67620;51.134;6.548;2023-08-17T12:05:21;23.50;;;16.63;;
78344;SDS011;67620;51.134;6.548;2023-08-17T12:07:49;24.23;;;17.10;;
78344;SDS011;67620;51.134;6.548;2023-08-17T12:10:15;23.42;;;17.20;;
78344;SDS011;67620;51.134;6.548;2023-08-17T12:12:41;23.98;;;16.45;;
78344;SDS011;67620;51.134;6.548;2023-08-17T12:15:07;22.58;;;15.73;;
78344;SDS011;67620;51.134;6.548;2023-08-17T12:17:35;23.42;;;16.55;;
78344;SDS011;67620;51.134;6.548;2023-08-17T12:20:01;23.60;;;16.70;;
78344;SDS011;67620;51.134;6.548;2023-08-17T12:22:27;20.20;;;15.95;;
78344;SDS011;67620;51.134;6.548;2023-08-17T12:24:52;25.02;;;18.08;;
78344;SDS011;67620;51.134;6.548;2023-08-17T12:27:18;23.15;;;17.63;;
78344;SDS011;67620;51.134;6.548;2023-08-17T12:29:47;22.55;;;17.42;;
78344;SDS011;67620;51.134;6.548;2023-08-17T12:32:17;26.40;;;18.95;;
78344;SDS011;67620;51.134;6.548;2023-08-17T12:34:44;26.73;;;19.33;;
78344;SDS011;67620;51.134;6.548;2023-08-17T12:37:10;22.95;;;16.92;;
78344;SDS011;67620;51.134;6.548;2023-08-17T12:39:37;23.05;;;17.45;;
78344;SDS011;67620;51.134;6.548;2023-08-17T12:42:03;19.80;;;14.85;;
78344;SDS011;67620;51.134;6.548;2023-08-17T12:44:30;23.67;;;16.52;;
78344;SDS011;67620;51.134;6.548;2023-08-17T12:46:55;22.70;;;15.85;;
78344;SDS011;67620;51.134;6.548;2023-08-17T12:49:21;21.08;;;15.27;;
78344;SDS011;67620;51.134;6.548;2023-08-17T12:51:50;19.73;;;14.77;;
78344;SDS011;67620;51.134;6.548;2023-08-17T12:54:15;21.02;;;17.33;;
78344;SDS011;67620;51.134;6.548;2023-08-17T12:56:41;23.73;;;18.20;;
78344;SDS011;67620;51.134;6.548;2023-08-17T12:59:06;23.65;;;16.85;;
78344;SDS011;67620;51.134;6.548;2023-08-17T13:01:32;31.20;;;19.02;;
78344;SDS011;67620;51.134;6.548;2023-08-17T13:03:58;25.02;;;19.10;;
78344;SDS011;67620;51.134;6.548;2023-08-17T13:06:24;25.70;;;18.77;;
78344;SDS011;67620;51.134;6.548;2023-08-17T13:08:49;21.90;;;16.60;;
78344;SDS011;67620;51.134;6.548;2023-08-17T13:11:15;22.30;;;16.42;;
78344;SDS011;67620;51.134;6.548;2023-08-17T13:13:40;22.02;;;15.82;;
78344;SDS011;67620;51.134;6.548;2023-08-17T13:16:06;24.05;;;17.67;;
78344;SDS011;67620;51.134;6.548;2023-08-17T13:18:31;25.40;;;16.60;;
78344;SDS011;67620;51.134;6.548;2023-08-17T13:20:57;21.90;;;15.45;;
78344;SDS011;67620;51.134;6.548;2023-08-17T13:23:23;22.58;;;15.88;;
78344;SDS011;67620;51.134;6.548;2023-08-17T13:25:48;20.80;;;15.70;;
78344;SDS011;67620;51.134;6.548;2023-08-17T13:28:14;20.67;;;15.13;;
78344;SDS011;67620;51.134;6.548;2023-08-17T13:30:39;19.08;;;14.77;;
78344;SDS011;67620;51.134;6.548;2023-08-17T13:33:05;21.33;;;15.18;;
78344;SDS011;67620;51.134;6.548;2023-08-17T13:35:31;18.52;;;14.63;;
78344;SDS011;67620;51.134;6.548;2023-08-17T13:37:57;21.75;;;15.13;;
78344;SDS011;67620;51.134;6.548;2023-08-17T13:40:23;18.63;;;14.57;;
78344;SDS011;67620;51.134;6.548;2023-08-17T13:42:49;22.58;;;16.98;;
78344;SDS011;67620;51.134;6.548;2023-08-17T13:45:14;19.92;;;15.32;;
78344;SDS011;67620;51.134;6.548;2023-08-17T13:47:40;18.05;;;14.48;;
78344;SDS011;67620;51.134;6.548;2023-08-17T13:50:06;19.58;;;13.18;;
78344;SDS011;67620;51.134;6.548;2023-08-17T13:52:31;14.55;;;12.50;;
78344;SDS011;67620;51.134;6.548;2023-08-17T13:54:57;19.05;;;13.95;;
78344;SDS011;67620;51.134;6.548;2023-08-17T13:57:23;16.52;;;13.77;;
78344;SDS011;67620;51.134;6.548;2023-08-17T13:59:48;16.35;;;12.93;;
78344;SDS011;67620;51.134;6.548;2023-08-17T14:02:14;18.50;;;14.52;;
78344;SDS011;67620;51.134;6.548;2023-08-17T14:04:40;19.17;;;15.02;;
78344;SDS011;67620;51.134;6.548;2023-08-17T14:07:05;20.10;;;15.68;;
78344;SDS011;67620;51.134;6.548;2023-08-17T14:09:31;23.30;;;17.25;;
78344;SDS011;67620;51.134;6.548;2023-08-17T14:11:56;20.25;;;16.70;;
78344;SDS011;67620;51.134;6.548;2023-08-17T14:14:22;20.92;;;16.33;;
78344;SDS011;67620;51.134;6.548;2023-08-17T14:16:48;22.02;;;17.23;;
78344;SDS011;67620;51.134;6.548;2023-08-17T14:19:13;21.13;;;17.40;;
78344;SDS011;67620;51.134;6.548;2023-08-17T14:21:39;21.33;;;16.08;;
78344;SDS011;67620;51.134;6.548;2023-08-17T14:24:04;20.73;;;17.27;;
78344;SDS011;67620;51.134;6.548;2023-08-17T14:26:31;23.90;;;17.60;;
78344;SDS011;67620;51.134;6.548;2023-08-17T14:28:57;24.15;;;18.17;;
78344;SDS011;67620;51.134;6.548;2023-08-17T14:31:22;23.65;;;17.23;;
78344;SDS011;67620;51.134;6.548;2023-08-17T14:33:48;23.35;;;17.85;;
78344;SDS011;67620;51.134;6.548;2023-08-17T14:36:14;22.60;;;17.58;;
78344;SDS011;67620;51.134;6.548;2023-08-17T14:38:40;21.70;;;16.77;;
78344;SDS011;67620;51.134;6.548;2023-08-17T14:41:05;21.75;;;16.98;;
78344;SDS011;67620;51.134;6.548;2023-08-17T14:43:32;22.67;;;18.52;;
78344;SDS011;67620;51.134;6.548;2023-08-17T14:45:58;23.40;;;17.58;;
78344;SDS011;67620;51.134;6.548;2023-08-17T14:48:24;23.50;;;18.98;;
78344;SDS011;67620;51.134;6.548;2023-08-17T14:50:50;22.90;;;16.77;;
78344;SDS011;67620;51.134;6.548;2023-08-17T14:53:15;21.90;;;18.25;;